Time;durP1;ratioP1;P1;durP2;ratioP2;P2;SDS_P1;SDS_P2;PMS_P1;PMS_P2;Temp;Humidity;BMP_temperature;BMP_pressure;BME280_temperature;BME280_humidity;BME280_pressure;Samples;Min_cycle;Max_cycle;Signal;HPM_P1;HPM_P2
2022/07/07 00:02:14;;;;;;;6.10;3.07;;;;;;;;;;5042638;28;20197;-42
2022/07/07 00:04:40;;;;;;;5.77;3.03;;;;;;;;;;5044121;28;20177;-41
2022/07/07 00:07:06;;;;;;;5.97;2.60;;;;;;;;;;5046050;28;21360;-41
2022/07/07 00:09:33;;;;;;;3.40;2.90;;;;;;;;;;5041664;28;20180;-41
2022/07/07 00:11:59;;;;;;;4.87;2.97;;;;;;;;;;5042516;28;20994;-39
2022/07/07 00:14:26;;;;;;;5.60;3.30;;;;;;;;;;5043123;28;20317;-42
2022/07/07 00:16:52;;;;;;;5.23;3.17;;;;;;;;;;5041931;28;20688;-41
2022/07/07 00:19:19;;;;;;;3.60;3.13;;;;;;;;;;5041248;28;20179;-41
2022/07/07 00:21:45;;;;;;;8.33;3.73;;;;;;;;;;5042235;28;20456;-41
2022/07/07 00:24:11;;;;;;;5.93;3.67;;;;;;;;;;5049086;28;20407;-40
2022/07/07 00:26:37;;;;;;;5.87;3.77;;;;;;;;;;5043176;28;20897;-39
2022/07/07 00:29:03;;;;;;;6.43;3.00;;;;;;;;;;5041779;28;21002;-41
2022/07/07 00:31:29;;;;;;;4.70;3.53;;;;;;;;;;5050918;28;20751;-42
2022/07/07 00:33:55;;;;;;;5.50;3.53;;;;;;;;;;5045757;28;20174;-42
2022/07/07 00:36:22;;;;;;;4.70;3.53;;;;;;;;;;5040551;28;20479;-42
2022/07/07 00:38:48;;;;;;;5.77;3.57;;;;;;;;;;5042509;28;20637;-42
2022/07/07 00:41:14;;;;;;;4.97;3.40;;;;;;;;;;5045188;28;21050;-41
2022/07/07 00:43:41;;;;;;;5.53;3.50;;;;;;;;;;5045601;28;20459;-40
2022/07/07 00:46:08;;;;;;;7.10;3.80;;;;;;;;;;5041458;28;20221;-41
2022/07/07 00:48:35;;;;;;;7.40;4.40;;;;;;;;;;5044102;28;20213;-42
2022/07/07 00:51:01;;;;;;;7.43;4.40;;;;;;;;;;5040410;28;20714;-41
2022/07/07 00:53:27;;;;;;;9.90;4.47;;;;;;;;;;5043764;28;20753;-40
2022/07/07 00:55:53;;;;;;;5.67;4.50;;;;;;;;;;5041874;28;20887;-41
2022/07/07 00:58:19;;;;;;;5.00;4.50;;;;;;;;;;5044454;28;20175;-41
2022/07/07 01:00:45;;;;;;;5.93;4.43;;;;;;;;;;5043216;28;20186;-40
2022/07/07 01:03:11;;;;;;;6.00;4.03;;;;;;;;;;5043146;28;20671;-40
2022/07/07 01:05:38;;;;;;;6.47;4.77;;;;;;;;;;5046948;28;21034;-40
2022/07/07 01:08:05;;;;;;;6.80;5.20;;;;;;;;;;5045160;28;20194;-40
2022/07/07 01:10:31;;;;;;;5.17;4.10;;;;;;;;;;5044685;28;20799;-41
2022/07/07 01:13:02;;;;;;;8.47;4.87;;;;;;;;;;5042486;28;20281;-41
2022/07/07 01:15:28;;;;;;;8.30;4.60;;;;;;;;;;5045349;28;21020;-41
2022/07/07 01:17:54;;;;;;;7.73;4.43;;;;;;;;;;5043483;28;20264;-41
2022/07/07 01:20:21;;;;;;;5.33;4.20;;;;;;;;;;5042312;28;20175;-41
2022/07/07 01:22:48;;;;;;;6.40;4.40;;;;;;;;;;5043630;28;20207;-41
2022/07/07 01:25:14;;;;;;;5.23;4.10;;;;;;;;;;5044220;28;20178;-41
2022/07/07 01:27:40;;;;;;;5.87;4.40;;;;;;;;;;5042893;28;20171;-41
2022/07/07 01:30:06;;;;;;;5.87;4.60;;;;;;;;;;5040434;28;20174;-40
2022/07/07 01:32:32;;;;;;;7.30;4.50;;;;;;;;;;5041572;28;21035;-40
2022/07/07 01:34:58;;;;;;;6.40;4.40;;;;;;;;;;5042516;28;20814;-41
2022/07/07 01:37:25;;;;;;;8.40;4.90;;;;;;;;;;5040119;28;21094;-41
2022/07/07 01:39:52;;;;;;;6.53;5.30;;;;;;;;;;5041908;28;20517;-42
2022/07/07 01:42:18;;;;;;;7.40;4.93;;;;;;;;;;5043421;28;20195;-41
2022/07/07 01:44:44;;;;;;;6.63;5.00;;;;;;;;;;5045122;28;20173;-41
2022/07/07 01:47:11;;;;;;;6.60;4.90;;;;;;;;;;5043298;28;20512;-41
2022/07/07 01:49:37;;;;;;;8.43;4.97;;;;;;;;;;5039535;28;21136;-40
2022/07/07 01:52:04;;;;;;;7.50;5.17;;;;;;;;;;5044348;28;20844;-41
2022/07/07 01:54:31;;;;;;;5.97;4.30;;;;;;;;;;5046705;28;20182;-41
2022/07/07 01:56:57;;;;;;;5.73;4.40;;;;;;;;;;5042174;28;20472;-42
2022/07/07 01:59:23;;;;;;;7.20;4.97;;;;;;;;;;5040044;28;20182;-42
2022/07/07 02:01:50;;;;;;;7.30;4.93;;;;;;;;;;5042418;28;21041;-41
2022/07/07 02:04:16;;;;;;;6.27;4.90;;;;;;;;;;5041166;28;20180;-42
2022/07/07 02:06:42;;;;;;;6.10;4.90;;;;;;;;;;5043706;28;20660;-41
2022/07/07 02:09:11;;;;;;;7.93;5.10;;;;;;;;;;5040748;28;20717;-41
2022/07/07 02:11:37;;;;;;;6.13;4.40;;;;;;;;;;5046394;28;20178;-42
2022/07/07 02:14:04;;;;;;;5.87;4.30;;;;;;;;;;5042949;28;20178;-40
2022/07/07 02:16:31;;;;;;;5.03;4.40;;;;;;;;;;5038903;28;20752;-39
2022/07/07 02:18:58;;;;;;;7.43;4.80;;;;;;;;;;5041980;28;20183;-41
2022/07/07 02:21:25;;;;;;;7.10;4.97;;;;;;;;;;5043192;28;20233;-41
2022/07/07 02:23:51;;;;;;;5.63;4.70;;;;;;;;;;5042562;28;20174;-41
2022/07/07 02:26:18;;;;;;;5.47;4.93;;;;;;;;;;5042054;28;20302;-42
2022/07/07 02:28:44;;;;;;;6.47;4.90;;;;;;;;;;5042654;28;20184;-41
2022/07/07 02:31:10;;;;;;;6.37;5.00;;;;;;;;;;5043241;28;21256;-40
2022/07/07 02:33:36;;;;;;;7.80;4.67;;;;;;;;;;5042077;28;20926;-42
2022/07/07 02:36:03;;;;;;;6.70;4.67;;;;;;;;;;5037936;28;20504;-42
2022/07/07 02:38:29;;;;;;;5.83;4.90;;;;;;;;;;5042974;28;20893;-41
2022/07/07 02:40:55;;;;;;;5.23;4.37;;;;;;;;;;5041878;28;20419;-41
2022/07/07 02:43:22;;;;;;;6.20;4.40;;;;;;;;;;5044618;28;20395;-41
2022/07/07 02:45:49;;;;;;;9.47;4.80;;;;;;;;;;5041392;28;20181;-42
2022/07/07 02:48:16;;;;;;;4.60;4.03;;;;;;;;;;5040607;28;20202;-41
2022/07/07 02:50:42;;;;;;;7.50;4.10;;;;;;;;;;5040465;28;20209;-42
2022/07/07 02:53:10;;;;;;;12.10;5.00;;;;;;;;;;5044379;28;20186;-42
2022/07/07 02:55:36;;;;;;;7.90;4.90;;;;;;;;;;5038204;28;20645;-41
2022/07/07 02:58:03;;;;;;;8.13;4.60;;;;;;;;;;5039260;28;20179;-42
2022/07/07 03:00:29;;;;;;;7.50;4.40;;;;;;;;;;5041408;28;20179;-41
2022/07/07 03:02:55;;;;;;;7.37;4.40;;;;;;;;;;5039581;28;20210;-42
2022/07/07 03:05:22;;;;;;;6.20;4.27;;;;;;;;;;5039622;28;20473;-40
2022/07/07 03:07:48;;;;;;;6.37;4.40;;;;;;;;;;5039663;28;20181;-41
2022/07/07 03:10:15;;;;;;;7.37;4.60;;;;;;;;;;5041920;28;20179;-41
2022/07/07 03:12:41;;;;;;;5.83;4.13;;;;;;;;;;5041258;28;20189;-42
2022/07/07 03:15:08;;;;;;;8.17;4.33;;;;;;;;;;5042598;28;20190;-41
2022/07/07 03:17:34;;;;;;;6.47;4.10;;;;;;;;;;5034578;28;20668;-41
2022/07/07 03:20:00;;;;;;;9.10;4.83;;;;;;;;;;5040222;28;20329;-41
2022/07/07 03:22:26;;;;;;;7.60;4.83;;;;;;;;;;5042087;28;20209;-41
2022/07/07 03:24:52;;;;;;;6.33;5.07;;;;;;;;;;5043552;28;20200;-41
2022/07/07 03:27:19;;;;;;;10.30;5.30;;;;;;;;;;5039810;28;20177;-42
2022/07/07 03:29:45;;;;;;;7.50;5.27;;;;;;;;;;5038163;28;20221;-42
2022/07/07 03:32:11;;;;;;;7.23;5.40;;;;;;;;;;5043712;28;20186;-42
2022/07/07 03:34:37;;;;;;;9.40;5.20;;;;;;;;;;5041088;28;20807;-42
2022/07/07 03:37:04;;;;;;;9.20;6.00;;;;;;;;;;5044599;28;20178;-42
2022/07/07 03:39:30;;;;;;;6.60;5.40;;;;;;;;;;5043315;28;20183;-42
2022/07/07 03:41:56;;;;;;;7.13;5.20;;;;;;;;;;5043630;28;20657;-42
2022/07/07 03:44:22;;;;;;;9.10;5.57;;;;;;;;;;5041808;28;21783;-42
2022/07/07 03:46:48;;;;;;;10.07;6.03;;;;;;;;;;5041230;28;20182;-41
2022/07/07 03:49:14;;;;;;;6.67;5.40;;;;;;;;;;5039616;28;22256;-42
2022/07/07 03:51:40;;;;;;;8.03;5.40;;;;;;;;;;5043899;28;20243;-41
2022/07/07 03:54:06;;;;;;;6.60;5.20;;;;;;;;;;5041772;28;20617;-42
2022/07/07 03:56:32;;;;;;;8.63;4.93;;;;;;;;;;5042259;28;20688;-42
2022/07/07 03:58:58;;;;;;;7.73;5.40;;;;;;;;;;5040037;28;20293;-41
2022/07/07 04:01:24;;;;;;;7.10;4.90;;;;;;;;;;5044738;28;20618;-40
2022/07/07 04:03:50;;;;;;;7.20;5.60;;;;;;;;;;5039605;28;20633;-41
2022/07/07 04:06:17;;;;;;;6.57;4.77;;;;;;;;;;5038158;28;20182;-41
2022/07/07 04:08:43;;;;;;;9.83;4.90;;;;;;;;;;5038231;28;20193;-40
2022/07/07 04:11:09;;;;;;;6.00;4.90;;;;;;;;;;5043506;28;20171;-40
2022/07/07 04:13:35;;;;;;;9.20;5.30;;;;;;;;;;5040076;28;20700;-41
2022/07/07 04:16:01;;;;;;;9.23;5.30;;;;;;;;;;5041523;28;20411;-41
2022/07/07 04:18:27;;;;;;;6.80;4.80;;;;;;;;;;5040000;28;20524;-40
2022/07/07 04:20:53;;;;;;;8.60;5.57;;;;;;;;;;5046917;28;20175;-41
2022/07/07 04:23:20;;;;;;;8.40;5.30;;;;;;;;;;5042966;28;20752;-40
2022/07/07 04:25:46;;;;;;;7.30;4.83;;;;;;;;;;5046415;28;20542;-41
2022/07/07 04:28:12;;;;;;;6.97;5.43;;;;;;;;;;5043731;28;20175;-39
2022/07/07 04:30:38;;;;;;;9.23;5.30;;;;;;;;;;5051912;28;20632;-42
2022/07/07 04:33:04;;;;;;;8.77;5.37;;;;;;;;;;5048569;28;20367;-41
2022/07/07 04:35:30;;;;;;;8.80;5.40;;;;;;;;;;5045745;28;20187;-41
2022/07/07 04:37:56;;;;;;;11.87;6.00;;;;;;;;;;5049442;28;20256;-41
2022/07/07 04:40:22;;;;;;;10.07;6.33;;;;;;;;;;5050647;28;20210;-42
2022/07/07 04:42:49;;;;;;;9.60;7.00;;;;;;;;;;5046094;28;20213;-43
2022/07/07 04:45:15;;;;;;;11.97;6.43;;;;;;;;;;5047685;28;21625;-41
2022/07/07 04:47:41;;;;;;;7.10;6.23;;;;;;;;;;5043960;28;20239;-42
2022/07/07 04:50:09;;;;;;;10.73;7.37;;;;;;;;;;5042132;28;20352;-40
2022/07/07 04:52:35;;;;;;;9.83;7.57;;;;;;;;;;5047970;28;20183;-40
2022/07/07 04:55:01;;;;;;;9.73;7.03;;;;;;;;;;5048296;28;20467;-41
2022/07/07 04:57:27;;;;;;;11.23;7.57;;;;;;;;;;5046894;28;20505;-41
2022/07/07 04:59:53;;;;;;;9.63;8.00;;;;;;;;;;5048637;28;20619;-37
2022/07/07 05:02:19;;;;;;;14.33;11.23;;;;;;;;;;5050003;28;20194;-39
2022/07/07 05:04:45;;;;;;;15.77;11.97;;;;;;;;;;5047918;28;21035;-40
2022/07/07 05:07:11;;;;;;;14.10;11.80;;;;;;;;;;5047429;28;20491;-40
2022/07/07 05:09:37;;;;;;;17.17;12.00;;;;;;;;;;5044299;28;20896;-40
2022/07/07 05:12:04;;;;;;;14.03;11.00;;;;;;;;;;5042464;28;21054;-40
2022/07/07 05:14:30;;;;;;;12.60;10.20;;;;;;;;;;5048722;28;20186;-41
2022/07/07 05:16:56;;;;;;;12.00;9.40;;;;;;;;;;5045139;28;20826;-39
2022/07/07 05:19:23;;;;;;;12.07;9.23;;;;;;;;;;5044693;28;20433;-40
2022/07/07 05:21:49;;;;;;;10.93;8.33;;;;;;;;;;5046121;28;20303;-41
2022/07/07 05:24:15;;;;;;;9.73;7.60;;;;;;;;;;5046450;28;21262;-39
2022/07/07 05:26:41;;;;;;;8.80;7.90;;;;;;;;;;5048947;28;20321;-40
2022/07/07 05:29:07;;;;;;;8.83;7.77;;;;;;;;;;5049569;28;20186;-39
2022/07/07 05:31:34;;;;;;;12.50;8.07;;;;;;;;;;5047527;28;20273;-41
2022/07/07 05:34:00;;;;;;;11.23;8.40;;;;;;;;;;5049768;28;20756;-41
2022/07/07 05:36:26;;;;;;;8.90;7.87;;;;;;;;;;5054874;27;20486;-41
2022/07/07 05:38:52;;;;;;;13.47;7.87;;;;;;;;;;5055570;28;20529;-41
2022/07/07 05:41:18;;;;;;;12.03;6.77;;;;;;;;;;5049250;28;20194;-41
2022/07/07 05:43:44;;;;;;;8.50;6.73;;;;;;;;;;5056253;28;20233;-40
2022/07/07 05:46:11;;;;;;;6.03;5.43;;;;;;;;;;5051267;28;20523;-40
2022/07/07 05:48:37;;;;;;;7.10;6.17;;;;;;;;;;5047563;28;20852;-40
2022/07/07 05:51:04;;;;;;;8.40;5.97;;;;;;;;;;5052204;28;20167;-40
2022/07/07 05:53:30;;;;;;;12.30;7.00;;;;;;;;;;5050703;28;20579;-39
2022/07/07 05:55:59;;;;;;;10.70;6.30;;;;;;;;;;5050615;28;20436;-41
2022/07/07 05:58:25;;;;;;;11.17;6.20;;;;;;;;;;5049959;28;20170;-41
2022/07/07 06:00:51;;;;;;;8.93;6.40;;;;;;;;;;5054081;28;20183;-41
2022/07/07 06:03:17;;;;;;;8.53;7.20;;;;;;;;;;5053268;28;20761;-40
2022/07/07 06:05:44;;;;;;;7.67;6.87;;;;;;;;;;5051011;28;20233;-41
2022/07/07 06:08:10;;;;;;;11.30;6.77;;;;;;;;;;5050112;28;20360;-41
2022/07/07 06:10:37;;;;;;;10.80;7.37;;;;;;;;;;5055925;28;20258;-40
2022/07/07 06:13:03;;;;;;;11.27;6.97;;;;;;;;;;5056746;28;20270;-40
2022/07/07 06:15:33;;;;;;;14.47;6.83;;;;;;;;;;5054649;28;20180;-41
2022/07/07 06:18:05;;;;;;;11.53;6.17;;;;;;;;;;5054275;28;21164;-41
2022/07/07 06:20:31;;;;;;;8.27;6.37;;;;;;;;;;5054804;28;20183;-40
2022/07/07 06:22:58;;;;;;;9.77;6.03;;;;;;;;;;5056135;28;21073;-40
2022/07/07 06:25:26;;;;;;;11.87;6.70;;;;;;;;;;5056076;28;20175;-41
2022/07/07 06:27:52;;;;;;;8.70;5.90;;;;;;;;;;5050573;28;20266;-41
2022/07/07 06:30:19;;;;;;;10.20;5.67;;;;;;;;;;5052415;28;20280;-40
2022/07/07 06:32:45;;;;;;;10.33;6.30;;;;;;;;;;5055016;28;20174;-41
2022/07/07 06:35:12;;;;;;;9.50;5.40;;;;;;;;;;5049682;28;21071;-41
2022/07/07 06:37:38;;;;;;;10.53;6.27;;;;;;;;;;5049923;28;20178;-40
2022/07/07 06:40:04;;;;;;;8.30;5.90;;;;;;;;;;5046717;28;20167;-41
2022/07/07 06:42:30;;;;;;;12.97;7.00;;;;;;;;;;5054161;28;20415;-41
2022/07/07 06:44:56;;;;;;;9.40;5.90;;;;;;;;;;5049699;28;20750;-41
2022/07/07 06:47:23;;;;;;;8.43;6.70;;;;;;;;;;5049501;28;20680;-40
2022/07/07 06:49:49;;;;;;;9.00;5.87;;;;;;;;;;5052384;28;20168;-41
2022/07/07 06:52:15;;;;;;;7.60;5.87;;;;;;;;;;5053402;28;20175;-42
2022/07/07 06:54:41;;;;;;;9.37;5.73;;;;;;;;;;5045069;28;20210;-41
2022/07/07 06:57:08;;;;;;;9.80;6.60;;;;;;;;;;5048948;28;20265;-40
2022/07/07 06:59:35;;;;;;;8.67;6.20;;;;;;;;;;5047345;28;20912;-41
2022/07/07 07:02:01;;;;;;;8.97;5.67;;;;;;;;;;5055259;28;20995;-41
2022/07/07 07:04:28;;;;;;;10.03;5.83;;;;;;;;;;5049614;28;20341;-41
2022/07/07 07:06:54;;;;;;;11.03;6.37;;;;;;;;;;5046297;28;20159;-40
2022/07/07 07:09:20;;;;;;;9.20;6.23;;;;;;;;;;5043240;28;20288;-41
2022/07/07 07:11:46;;;;;;;9.80;5.50;;;;;;;;;;5052900;28;20523;-41
2022/07/07 07:14:13;;;;;;;10.23;6.00;;;;;;;;;;5051411;28;20730;-41
2022/07/07 07:16:39;;;;;;;13.43;6.40;;;;;;;;;;5049840;28;20423;-41
2022/07/07 07:19:05;;;;;;;13.40;6.63;;;;;;;;;;5050957;28;20186;-40
2022/07/07 07:21:31;;;;;;;13.03;6.20;;;;;;;;;;5053234;28;20174;-41
2022/07/07 07:23:57;;;;;;;9.73;6.40;;;;;;;;;;5045691;28;20672;-40
2022/07/07 07:26:24;;;;;;;10.60;6.03;;;;;;;;;;5053649;28;20170;-41
2022/07/07 07:28:50;;;;;;;9.90;5.80;;;;;;;;;;5055237;28;20171;-41
2022/07/07 07:31:16;;;;;;;8.20;6.23;;;;;;;;;;5054137;28;20659;-42
2022/07/07 07:33:43;;;;;;;10.20;6.70;;;;;;;;;;5045952;28;20237;-42
2022/07/07 07:36:09;;;;;;;8.07;6.20;;;;;;;;;;5051330;28;20339;-40
2022/07/07 07:38:39;;;;;;;14.10;6.53;;;;;;;;;;5050765;28;20538;-42
2022/07/07 07:41:07;;;;;;;8.43;6.00;;;;;;;;;;5050385;28;20222;-41
2022/07/07 07:43:33;;;;;;;7.77;5.80;;;;;;;;;;5047243;28;20286;-40
2022/07/07 07:45:59;;;;;;;13.73;5.80;;;;;;;;;;5053312;28;20612;-41
2022/07/07 07:48:25;;;;;;;6.00;4.63;;;;;;;;;;5053823;28;20172;-41
2022/07/07 07:50:51;;;;;;;12.50;5.50;;;;;;;;;;5048832;28;20170;-42
2022/07/07 07:53:17;;;;;;;7.23;5.20;;;;;;;;;;5051218;28;20583;-42
2022/07/07 07:55:44;;;;;;;9.60;5.20;;;;;;;;;;5051806;28;20186;-42
2022/07/07 07:58:10;;;;;;;9.17;4.97;;;;;;;;;;5037922;28;20182;-41
2022/07/07 08:00:36;;;;;;;9.23;5.00;;;;;;;;;;5045637;28;20228;-40
2022/07/07 08:03:02;;;;;;;8.83;5.47;;;;;;;;;;5053660;28;20198;-41
2022/07/07 08:05:29;;;;;;;9.13;4.37;;;;;;;;;;5051591;28;20753;-41
2022/07/07 08:07:56;;;;;;;10.83;6.37;;;;;;;;;;5050933;28;20707;-42
2022/07/07 08:10:22;;;;;;;9.97;5.67;;;;;;;;;;5051979;28;20168;-41
2022/07/07 08:12:49;;;;;;;6.17;4.27;;;;;;;;;;5054126;28;20175;-41
2022/07/07 08:15:15;;;;;;;7.90;4.10;;;;;;;;;;5056558;28;20496;-41
2022/07/07 08:17:41;;;;;;;9.27;4.83;;;;;;;;;;5047746;28;20191;-41
2022/07/07 08:20:08;;;;;;;8.73;4.57;;;;;;;;;;5054125;28;20523;-42
2022/07/07 08:22:34;;;;;;;7.40;4.63;;;;;;;;;;5052812;28;20198;-42
2022/07/07 08:25:00;;;;;;;8.27;4.50;;;;;;;;;;5052678;28;20167;-42
2022/07/07 08:27:26;;;;;;;12.43;5.30;;;;;;;;;;5053868;28;20466;-42
2022/07/07 08:29:53;;;;;;;6.37;4.10;;;;;;;;;;5056105;28;20167;-42
2022/07/07 08:32:19;;;;;;;7.97;4.50;;;;;;;;;;5054057;28;20577;-42
2022/07/07 08:34:45;;;;;;;8.03;4.90;;;;;;;;;;5050496;28;20175;-42
2022/07/07 08:37:11;;;;;;;8.37;4.93;;;;;;;;;;5047903;28;20168;-41
2022/07/07 08:39:38;;;;;;;8.90;4.93;;;;;;;;;;5057111;28;20205;-42
2022/07/07 08:42:04;;;;;;;5.93;3.77;;;;;;;;;;5053920;28;20574;-42
2022/07/07 08:44:30;;;;;;;5.97;4.37;;;;;;;;;;5049949;28;20167;-41
2022/07/07 08:46:57;;;;;;;7.20;3.80;;;;;;;;;;5051080;28;20207;-42
2022/07/07 08:49:23;;;;;;;6.67;3.43;;;;;;;;;;5048008;28;20180;-41
2022/07/07 08:51:49;;;;;;;9.67;3.80;;;;;;;;;;5052782;28;20260;-42
2022/07/07 08:54:16;;;;;;;10.17;3.90;;;;;;;;;;5049503;28;20173;-41
2022/07/07 08:56:43;;;;;;;7.13;3.73;;;;;;;;;;5048745;28;20170;-42
2022/07/07 08:59:10;;;;;;;7.50;3.90;;;;;;;;;;5047048;28;20202;-41
2022/07/07 09:01:36;;;;;;;9.47;4.57;;;;;;;;;;5051466;28;20171;-41
2022/07/07 09:04:03;;;;;;;7.97;3.67;;;;;;;;;;5046877;28;20753;-41
2022/07/07 09:06:29;;;;;;;8.23;3.83;;;;;;;;;;5050553;28;20989;-41
2022/07/07 09:08:56;;;;;;;9.93;3.93;;;;;;;;;;5044385;28;21106;-42
2022/07/07 09:11:29;;;;;;;6.63;3.47;;;;;;;;;;5055907;28;21057;-41
2022/07/07 09:14:09;;;;;;;5.63;3.30;;;;;;;;;;5048128;28;20179;-41
2022/07/07 09:16:36;;;;;;;4.57;3.47;;;;;;;;;;5049243;28;21060;-41
2022/07/07 09:19:03;;;;;;;7.80;3.03;;;;;;;;;;5049160;28;20182;-42
2022/07/07 09:21:33;;;;;;;9.03;3.33;;;;;;;;;;5064293;27;20637;-42
2022/07/07 09:23:59;;;;;;;9.97;3.20;;;;;;;;;;5048135;28;20187;-42
2022/07/07 09:26:38;;;;;;;9.53;3.70;;;;;;;;;;5048836;28;20175;-42
2022/07/07 09:29:06;;;;;;;6.47;3.33;;;;;;;;;;5049320;28;20209;-42
2022/07/07 09:31:51;;;;;;;7.80;3.10;;;;;;;;;;5041195;28;20172;-42
2022/07/07 09:34:18;;;;;;;8.23;3.70;;;;;;;;;;5049753;28;20285;-41
2022/07/07 09:39:49;;;;;;;6.70;2.93;;;;;;;;;;5048264;28;20290;-42
2022/07/07 09:42:19;;;;;;;6.20;3.13;;;;;;;;;;5048229;28;20309;-42
2022/07/07 09:44:49;;;;;;;7.40;2.90;;;;;;;;;;5051036;28;21105;-42
2022/07/07 09:47:15;;;;;;;5.20;3.00;;;;;;;;;;5047677;28;20291;-42
2022/07/07 09:49:57;;;;;;;6.73;3.27;;;;;;;;;;5047115;28;20176;-42
2022/07/07 09:52:23;;;;;;;9.40;3.67;;;;;;;;;;5048005;28;20276;-42
2022/07/07 09:54:50;;;;;;;8.40;3.60;;;;;;;;;;5049036;28;20179;-42
2022/07/07 09:57:17;;;;;;;7.43;3.10;;;;;;;;;;5046166;28;20168;-42
2022/07/07 09:59:43;;;;;;;5.70;2.60;;;;;;;;;;5043027;28;20182;-42
2022/07/07 10:02:18;;;;;;;6.63;2.70;;;;;;;;;;5046251;28;20209;-42
2022/07/07 10:04:45;;;;;;;7.03;2.40;;;;;;;;;;5054270;28;20172;-42
2022/07/07 10:07:13;;;;;;;6.57;2.83;;;;;;;;;;5050041;28;20168;-42
2022/07/07 10:09:43;;;;;;;5.13;2.43;;;;;;;;;;5037228;28;20281;-42
2022/07/07 10:12:09;;;;;;;3.57;2.37;;;;;;;;;;5045102;28;20172;-42
2022/07/07 10:14:36;;;;;;;4.70;2.53;;;;;;;;;;5045688;28;20163;-42
2022/07/07 10:17:02;;;;;;;5.73;2.70;;;;;;;;;;5046492;28;20784;-42
2022/07/07 10:19:29;;;;;;;5.83;2.60;;;;;;;;;;5045873;28;20159;-42
2022/07/07 10:21:55;;;;;;;5.67;2.80;;;;;;;;;;5044052;28;20197;-42
2022/07/07 10:24:22;;;;;;;4.53;2.60;;;;;;;;;;5045241;28;20207;-41
2022/07/07 10:26:58;;;;;;;5.90;2.23;;;;;;;;;;5047955;28;20195;-42
2022/07/07 10:29:43;;;;;;;4.03;2.20;;;;;;;;;;5038869;28;20238;-42
2022/07/07 10:32:11;;;;;;;7.07;2.20;;;;;;;;;;5042438;28;20661;-41
2022/07/07 10:34:38;;;;;;;4.90;2.63;;;;;;;;;;5047576;28;20172;-42
2022/07/07 10:37:06;;;;;;;3.93;2.70;;;;;;;;;;5046398;28;20167;-42
2022/07/07 10:39:35;;;;;;;6.30;2.67;;;;;;;;;;5050316;28;20845;-42
2022/07/07 10:42:01;;;;;;;9.47;2.90;;;;;;;;;;5049570;28;20560;-42
2022/07/07 10:44:27;;;;;;;4.43;2.37;;;;;;;;;;5043973;28;20178;-42
2022/07/07 10:47:02;;;;;;;4.70;2.60;;;;;;;;;;5039726;28;20169;-42
2022/07/07 10:49:41;;;;;;;4.63;2.27;;;;;;;;;;5045950;28;20712;-41
2022/07/07 10:52:11;;;;;;;5.60;2.40;;;;;;;;;;5051215;28;21214;-42
2022/07/07 10:54:38;;;;;;;4.67;2.47;;;;;;;;;;5050559;28;20191;-40
2022/07/07 10:57:07;;;;;;;8.17;2.50;;;;;;;;;;5048921;28;20194;-42
2022/07/07 11:00:09;;;;;;;6.07;2.40;;;;;;;;;;5046584;28;20177;-42
2022/07/07 11:02:35;;;;;;;6.87;2.53;;;;;;;;;;5041416;28;20660;-42
2022/07/07 11:05:02;;;;;;;4.60;2.43;;;;;;;;;;5052673;28;20163;-42
2022/07/07 11:07:28;;;;;;;5.57;2.40;;;;;;;;;;5047105;28;20252;-42
2022/07/07 11:09:59;;;;;;;10.87;2.40;;;;;;;;;;5049119;28;20208;-42
2022/07/07 11:12:41;;;;;;;3.90;2.20;;;;;;;;;;5051795;28;20206;-41
2022/07/07 11:15:16;;;;;;;5.57;2.63;;;;;;;;;;5053263;28;20178;-42
2022/07/07 11:17:47;;;;;;;4.10;2.20;;;;;;;;;;5048556;28;20188;-42
2022/07/07 11:20:17;;;;;;;6.30;2.30;;;;;;;;;;5047036;28;20544;-41
2022/07/07 11:23:06;;;;;;;6.43;2.60;;;;;;;;;;5051484;28;20194;-42
2022/07/07 11:25:34;;;;;;;3.73;2.20;;;;;;;;;;5039090;28;20241;-42
2022/07/07 11:28:00;;;;;;;2.97;2.33;;;;;;;;;;5045039;28;20173;-42
2022/07/07 11:30:26;;;;;;;6.50;2.30;;;;;;;;;;5045046;28;20504;-42
2022/07/07 11:32:56;;;;;;;6.17;2.20;;;;;;;;;;5050218;28;20205;-42
2022/07/07 11:35:22;;;;;;;5.60;2.37;;;;;;;;;;5048871;28;20409;-42
2022/07/07 11:37:49;;;;;;;5.90;2.37;;;;;;;;;;5048424;28;20811;-40
2022/07/07 11:40:15;;;;;;;3.60;2.33;;;;;;;;;;5049439;28;20609;-42
2022/07/07 11:42:41;;;;;;;7.87;2.30;;;;;;;;;;5052633;28;20196;-40
2022/07/07 11:45:23;;;;;;;5.60;2.37;;;;;;;;;;5044827;28;20650;-42
2022/07/07 11:47:49;;;;;;;4.37;1.93;;;;;;;;;;5050817;28;20181;-41
2022/07/07 11:50:15;;;;;;;3.57;2.03;;;;;;;;;;5047307;28;20175;-42
2022/07/07 11:52:48;;;;;;;4.77;2.43;;;;;;;;;;5052018;28;20585;-42
2022/07/07 11:55:16;;;;;;;3.60;2.27;;;;;;;;;;5046830;28;20661;-41
2022/07/07 11:57:42;;;;;;;6.53;2.23;;;;;;;;;;5048529;28;20195;-42
2022/07/07 12:00:12;;;;;;;5.63;1.90;;;;;;;;;;5048856;28;20473;-42
2022/07/07 12:02:38;;;;;;;5.17;2.23;;;;;;;;;;5051253;28;20195;-42
2022/07/07 12:05:04;;;;;;;5.17;2.10;;;;;;;;;;5051077;28;20173;-42
2022/07/07 12:07:30;;;;;;;4.27;2.13;;;;;;;;;;5046103;28;20592;-42
2022/07/07 12:09:57;;;;;;;4.73;2.00;;;;;;;;;;5050621;28;20187;-42
2022/07/07 12:12:23;;;;;;;3.90;1.90;;;;;;;;;;5048833;28;20204;-42
2022/07/07 12:14:49;;;;;;;5.77;1.97;;;;;;;;;;5047587;28;20199;-42
2022/07/07 12:17:33;;;;;;;5.43;2.00;;;;;;;;;;5047135;28;20965;-42
2022/07/07 12:19:59;;;;;;;3.97;2.07;;;;;;;;;;5048912;28;20367;-42
2022/07/07 12:22:33;;;;;;;5.47;1.93;;;;;;;;;;5046280;28;20246;-41
2022/07/07 12:25:04;;;;;;;4.73;1.80;;;;;;;;;;5044858;28;20175;-41
2022/07/07 12:27:30;;;;;;;4.13;2.13;;;;;;;;;;5046709;28;20386;-41
2022/07/07 12:30:05;;;;;;;2.87;2.20;;;;;;;;;;5049658;28;20181;-41
2022/07/07 12:32:32;;;;;;;4.03;2.07;;;;;;;;;;5048629;28;20519;-41
2022/07/07 12:34:58;;;;;;;4.13;2.00;;;;;;;;;;5046276;28;20186;-42
2022/07/07 12:37:45;;;;;;;4.40;2.30;;;;;;;;;;5050140;28;20866;-41
2022/07/07 12:40:13;;;;;;;4.87;2.00;;;;;;;;;;5048849;28;20330;-41
2022/07/07 12:42:42;;;;;;;7.30;1.70;;;;;;;;;;5045282;28;20499;-40
2022/07/07 12:45:12;;;;;;;5.93;2.00;;;;;;;;;;5050312;28;20175;-41
2022/07/07 12:47:49;;;;;;;6.63;2.30;;;;;;;;;;5046896;28;20198;-41
2022/07/07 12:50:15;;;;;;;4.67;1.97;;;;;;;;;;5046390;28;20190;-39
2022/07/07 12:52:41;;;;;;;4.07;2.13;;;;;;;;;;5049244;28;20280;-41
2022/07/07 12:55:11;;;;;;;4.93;1.90;;;;;;;;;;5048510;28;20289;-42
2022/07/07 12:57:38;;;;;;;6.50;2.00;;;;;;;;;;5049727;28;20990;-42
2022/07/07 13:00:06;;;;;;;2.90;1.80;;;;;;;;;;5051039;28;20554;-41
2022/07/07 13:02:32;;;;;;;6.80;1.90;;;;;;;;;;5052997;28;20213;-41
2022/07/07 13:04:59;;;;;;;6.33;1.97;;;;;;;;;;5056206;28;20256;-42
2022/07/07 13:07:25;;;;;;;4.00;1.77;;;;;;;;;;5048842;28;20340;-41
2022/07/07 13:09:51;;;;;;;4.83;2.10;;;;;;;;;;5049972;28;20183;-41
2022/07/07 13:12:18;;;;;;;3.80;1.90;;;;;;;;;;5048738;28;20701;-42
2022/07/07 13:14:44;;;;;;;5.23;1.90;;;;;;;;;;5056139;28;20171;-42
2022/07/07 13:17:11;;;;;;;6.77;2.20;;;;;;;;;;5051529;28;20659;-41
2022/07/07 13:19:37;;;;;;;3.37;1.90;;;;;;;;;;5051387;28;20293;-41
2022/07/07 13:22:04;;;;;;;5.47;1.87;;;;;;;;;;5052815;28;20174;-41
2022/07/07 13:24:30;;;;;;;5.30;1.77;;;;;;;;;;5057100;28;20206;-41
2022/07/07 13:26:57;;;;;;;2.03;1.67;;;;;;;;;;5052971;28;20175;-42
2022/07/07 13:29:23;;;;;;;3.33;1.70;;;;;;;;;;5050253;28;20175;-41
2022/07/07 13:31:49;;;;;;;3.80;1.70;;;;;;;;;;5051792;28;20179;-41
2022/07/07 13:34:16;;;;;;;4.77;2.13;;;;;;;;;;5051647;28;20389;-41
2022/07/07 13:36:42;;;;;;;6.67;1.90;;;;;;;;;;5052974;28;20171;-42
2022/07/07 13:39:08;;;;;;;3.23;1.80;;;;;;;;;;5049858;28;20677;-42
2022/07/07 13:41:34;;;;;;;5.43;2.20;;;;;;;;;;5052996;28;20180;-42
2022/07/07 13:44:00;;;;;;;5.13;2.07;;;;;;;;;;5055197;28;20472;-42
2022/07/07 13:46:26;;;;;;;4.47;1.80;;;;;;;;;;5047977;28;20218;-42
2022/07/07 13:48:52;;;;;;;6.30;1.90;;;;;;;;;;5050808;28;20176;-40
2022/07/07 13:51:18;;;;;;;2.73;1.50;;;;;;;;;;5053255;28;20487;-40
2022/07/07 13:53:44;;;;;;;7.53;1.83;;;;;;;;;;5050096;28;20524;-42
2022/07/07 13:56:11;;;;;;;4.87;1.70;;;;;;;;;;5051259;28;20195;-42
2022/07/07 13:58:37;;;;;;;4.40;1.90;;;;;;;;;;5051950;28;20637;-41
2022/07/07 14:01:03;;;;;;;6.77;1.80;;;;;;;;;;5051077;28;20183;-42
2022/07/07 14:03:29;;;;;;;3.97;1.70;;;;;;;;;;5053532;28;20844;-43
2022/07/07 14:05:55;;;;;;;4.73;1.73;;;;;;;;;;5054550;28;20627;-42
2022/07/07 14:08:21;;;;;;;2.73;1.50;;;;;;;;;;5046855;28;20167;-43
2022/07/07 14:10:48;;;;;;;5.47;1.50;;;;;;;;;;5050693;28;20175;-43
2022/07/07 14:13:14;;;;;;;2.17;1.30;;;;;;;;;;5053650;28;20240;-40
2022/07/07 14:15:45;;;;;;;4.90;1.70;;;;;;;;;;5049983;28;20634;-42
2022/07/07 14:18:11;;;;;;;3.73;1.73;;;;;;;;;;5047500;28;20760;-42
2022/07/07 14:20:37;;;;;;;5.57;1.80;;;;;;;;;;5051064;28;20775;-42
2022/07/07 14:23:03;;;;;;;6.60;2.00;;;;;;;;;;5048820;28;20945;-43
2022/07/07 14:25:29;;;;;;;2.30;1.60;;;;;;;;;;5047279;28;20183;-43
2022/07/07 14:27:55;;;;;;;4.27;1.67;;;;;;;;;;5051523;28;21026;-42
2022/07/07 14:30:21;;;;;;;3.07;1.50;;;;;;;;;;5048843;28;20567;-42
2022/07/07 14:32:47;;;;;;;2.37;1.50;;;;;;;;;;5049847;28;20179;-41
2022/07/07 14:35:14;;;;;;;2.63;1.43;;;;;;;;;;5050576;28;20293;-42
2022/07/07 14:37:40;;;;;;;6.57;1.57;;;;;;;;;;5050284;28;20661;-40
2022/07/07 14:40:06;;;;;;;4.00;1.60;;;;;;;;;;5047406;28;20175;-41
2022/07/07 14:42:32;;;;;;;1.83;1.50;;;;;;;;;;5049982;28;20194;-40
2022/07/07 14:44:59;;;;;;;4.60;1.70;;;;;;;;;;5044099;28;20791;-40